Time;durP1;ratioP1;P1;durP2;ratioP2;P2;SDS_P1;SDS_P2;PMS_P1;PMS_P2;Temp;Humidity;BMP_temperature;BMP_pressure;BME280_temperature;BME280_humidity;BME280_pressure;Samples;Min_cycle;Max_cycle;Signal;HPM_P1;HPM_P2
2022/10/21 00:02:01;;;;;;;;;;;;;;;15.26;43.36;99826.16;5017385;28;19984;-84
2022/10/21 00:04:26;;;;;;;;;;;;;;;15.24;43.23;99820.16;5025808;28;20007;-84
2022/10/21 00:06:51;;;;;;;;;;;;;;;15.25;43.15;99821.84;5023772;28;19955;-80
2022/10/21 00:09:17;;;;;;;;;;;;;;;15.22;43.29;99811.56;5022258;28;20072;-82
2022/10/21 00:11:42;;;;;;;;;;;;;;;15.19;43.20;99812.63;5024408;28;19921;-82
2022/10/21 00:14:07;;;;;;;;;;;;;;;15.17;43.24;99816.38;5007063;28;19940;-84
2022/10/21 00:16:33;;;;;;;;;;;;;;;15.16;43.32;99814.69;5023117;28;19925;-84
2022/10/21 00:18:58;;;;;;;;;;;;;;;15.13;43.35;99805.25;5025124;28;19936;-85
2022/10/21 00:21:23;;;;;;;;;;;;;;;15.13;43.23;99809.66;5006800;28;19940;-83
2022/10/21 00:23:49;;;;;;;;;;;;;;;15.11;43.27;99811.59;5008068;28;19924;-79
2022/10/21 00:26:14;;;;;;;;;;;;;;;15.11;43.35;99807.16;5007766;28;20286;-82
2022/10/21 00:28:40;;;;;;;;;;;;;;;15.11;43.21;99808.97;5005679;28;20404;-82
2022/10/21 00:31:06;;;;;;;;;;;;;;;15.08;43.33;99802.13;5007299;28;20399;-80
2022/10/21 00:33:31;;;;;;;;;;;;;;;15.04;43.31;99797.22;5028294;28;19924;-79
2022/10/21 00:35:57;;;;;;;;;;;;;;;15.00;43.32;99800.09;5005853;28;20012;-79
2022/10/21 00:38:23;;;;;;;;;;;;;;;14.96;43.66;99798.69;5007573;28;19917;-80
2022/10/21 00:40:48;;;;;;;;;;;;;;;14.94;43.44;99787.47;5006497;28;19928;-81
2022/10/21 00:43:13;;;;;;;;;;;;;;;14.92;43.47;99791.97;5005822;28;19917;-83
2022/10/21 00:45:39;;;;;;;;;;;;;;;14.89;43.48;99784.31;5007283;28;19921;-80
2022/10/21 00:48:14;;;;;;;;;;;;;;;14.88;43.67;99789.69;5022497;28;19921;-83
2022/10/21 00:50:50;;;;;;;;;;;;;;;14.84;43.65;99789.94;5021562;28;19922;-79
2022/10/21 00:53:16;;;;;;;;;;;;;;;14.85;43.74;99788.16;5006010;28;19917;-83
2022/10/21 00:55:45;;;;;;;;;;;;;;;14.84;43.70;99791.75;5007619;28;20344;-81
2022/10/21 00:58:11;;;;;;;;;;;;;;;14.82;43.69;99788.41;5022888;28;20016;-80
2022/10/21 01:00:36;;;;;;;;;;;;;;;14.82;43.86;99783.13;5023350;28;20008;-80
2022/10/21 01:03:02;;;;;;;;;;;;;;;14.79;43.80;99784.19;5023203;28;19925;-81
2022/10/21 01:05:27;;;;;;;;;;;;;;;14.78;43.98;99779.88;5023357;28;19917;-81
2022/10/21 01:07:52;;;;;;;;;;;;;;;14.73;43.67;99782.03;5005409;28;19917;-81
2022/10/21 01:10:18;;;;;;;;;;;;;;;14.68;43.92;99770.22;5023601;28;20012;-80
2022/10/21 01:12:59;;;;;;;;;;;;;;;14.67;43.88;99776.44;5005100;28;20039;-80
2022/10/21 01:15:25;;;;;;;;;;;;;;;14.64;43.66;99780.13;5019066;28;19917;-79
2022/10/21 01:18:06;;;;;;;;;;;;;;;14.62;43.58;99777.59;5021521;28;20415;-78
2022/10/21 01:20:47;;;;;;;;;;;;;;;14.57;43.86;99774.47;5005924;28;19945;-81
2022/10/21 01:23:36;;;;;;;;;;;;;;;14.52;43.90;99781.06;5021214;28;20419;-81
2022/10/21 01:26:20;;;;;;;;;;;;;;;14.43;44.27;99775.50;5022300;28;19928;-81
2022/10/21 01:28:49;;;;;;;;;;;;;;;14.43;43.85;99777.31;5020491;28;19917;-79
2022/10/21 01:31:17;;;;;;;;;;;;;;;14.39;44.24;99776.72;5020478;28;19917;-80
2022/10/21 01:33:45;;;;;;;;;;;;;;;14.32;44.08;99772.03;5001133;28;20390;-80
2022/10/21 01:36:29;;;;;;;;;;;;;;;14.29;44.16;99780.97;5038225;28;20502;-77
2022/10/21 01:39:03;;;;;;;;;;;;;;;14.24;44.24;99775.25;5021370;28;19925;-81
2022/10/21 01:41:36;;;;;;;;;;;;;;;14.18;44.26;99781.78;5037621;28;19960;-81
2022/10/21 01:44:01;;;;;;;;;;;;;;;14.19;44.34;99782.63;5018892;28;19921;-81
2022/10/21 01:46:30;;;;;;;;;;;;;;;14.15;44.52;99778.56;5020901;28;19923;-80
2022/10/21 01:49:00;;;;;;;;;;;;;;;14.08;44.63;99773.75;4988278;28;19918;-82
2022/10/21 01:51:26;;;;;;;;;;;;;;;14.08;44.64;99779.00;5035081;28;19952;-78
2022/10/21 01:53:53;;;;;;;;;;;;;;;14.06;44.71;99775.66;5020024;28;19941;-79
2022/10/21 01:56:18;;;;;;;;;;;;;;;14.01;44.73;99783.06;5008073;28;19917;-79
2022/10/21 01:58:44;;;;;;;;;;;;;;;14.02;44.66;99789.13;4992449;28;19989;-80
2022/10/21 02:01:09;;;;;;;;;;;;;;;14.00;44.47;99785.78;5042025;28;19963;-76
2022/10/21 02:03:35;;;;;;;;;;;;;;;13.97;44.87;99780.75;5033786;28;19917;-78
2022/10/21 02:06:00;;;;;;;;;;;;;;;13.93;44.71;99780.13;5020397;28;19925;-79
2022/10/21 02:08:26;;;;;;;;;;;;;;;13.89;44.85;99789.19;5022316;28;19924;-78
2022/10/21 02:10:53;;;;;;;;;;;;;;;13.87;44.84;99791.09;5004785;28;19921;-77
2022/10/21 02:13:22;;;;;;;;;;;;;;;13.87;44.42;99794.56;5019907;28;19917;-78
2022/10/21 02:15:48;;;;;;;;;;;;;;;13.86;44.60;99794.66;5020809;28;20315;-79
2022/10/21 02:18:17;;;;;;;;;;;;;;;13.83;44.66;99800.97;5005251;28;20060;-80
2022/10/21 02:20:42;;;;;;;;;;;;;;;13.81;44.61;99802.88;5017354;28;20026;-81
2022/10/21 02:23:08;;;;;;;;;;;;;;;13.77;44.41;99800.59;5004876;28;20404;-80
2022/10/21 02:25:33;;;;;;;;;;;;;;;13.75;44.31;99796.28;5004464;28;20011;-79
2022/10/21 02:27:58;;;;;;;;;;;;;;;13.72;44.36;99806.16;5019846;28;20312;-79
2022/10/21 02:30:24;;;;;;;;;;;;;;;13.69;44.48;99801.97;5005181;28;19917;-80
2022/10/21 02:32:49;;;;;;;;;;;;;;;13.70;44.60;99802.81;5021203;28;19959;-80
2022/10/21 02:35:16;;;;;;;;;;;;;;;13.66;44.47;99812.72;5020052;28;20300;-80
2022/10/21 02:37:42;;;;;;;;;;;;;;;13.63;44.81;99804.19;5005064;28;19921;-80
2022/10/21 02:40:07;;;;;;;;;;;;;;;13.58;44.67;99809.78;5020487;28;20008;-80
2022/10/21 02:42:33;;;;;;;;;;;;;;;13.54;45.04;99808.34;5020088;28;19917;-81
2022/10/21 02:45:01;;;;;;;;;;;;;;;13.50;44.89;99812.13;5005377;28;20392;-79
2022/10/21 02:47:28;;;;;;;;;;;;;;;13.47;45.12;99818.44;5020027;28;19976;-80
2022/10/21 02:49:53;;;;;;;;;;;;;;;13.43;45.13;99819.59;5003999;28;20316;-81
2022/10/21 02:52:18;;;;;;;;;;;;;;;13.39;45.33;99821.59;5021732;28;19917;-83
2022/10/21 02:54:43;;;;;;;;;;;;;;;13.35;45.51;99824.53;5003062;28;19968;-81
2022/10/21 02:57:09;;;;;;;;;;;;;;;13.31;45.56;99823.03;5004185;28;19921;-81
2022/10/21 02:59:34;;;;;;;;;;;;;;;13.26;45.65;99823.34;5004685;28;19917;-82
2022/10/21 03:01:59;;;;;;;;;;;;;;;13.25;45.55;99826.09;5019991;28;19948;-82
2022/10/21 03:04:25;;;;;;;;;;;;;;;13.21;45.36;99822.84;5022150;28;20419;-82
2022/10/21 03:06:50;;;;;;;;;;;;;;;13.20;45.85;99827.25;5020355;28;20381;-80
2022/10/21 03:09:15;;;;;;;;;;;;;;;13.21;45.52;99825.47;5003390;28;19918;-77
2022/10/21 03:11:40;;;;;;;;;;;;;;;13.23;45.60;99825.38;5022217;28;19944;-77
2022/10/21 03:14:06;;;;;;;;;;;;;;;13.18;45.72;99831.75;5019639;28;20012;-80
2022/10/21 03:16:31;;;;;;;;;;;;;;;13.17;45.85;99837.97;5019918;28;19930;-79
2022/10/21 03:18:56;;;;;;;;;;;;;;;13.15;45.81;99831.13;5004314;28;20354;-80
2022/10/21 03:21:22;;;;;;;;;;;;;;;13.13;45.85;99830.41;5019097;28;19917;-80
2022/10/21 03:23:47;;;;;;;;;;;;;;;13.12;45.61;99842.66;5020769;28;19917;-80
2022/10/21 03:26:12;;;;;;;;;;;;;;;13.07;46.21;99836.91;5020240;28;19917;-82
2022/10/21 03:28:38;;;;;;;;;;;;;;;13.08;46.09;99842.97;5019374;28;20400;-75
2022/10/21 03:31:03;;;;;;;;;;;;;;;13.02;46.09;99839.84;5020938;28;19975;-81
2022/10/21 03:33:29;;;;;;;;;;;;;;;13.14;55.95;99853.06;5004529;28;19923;-82
2022/10/21 03:35:54;;;;;;;;;;;;;;;13.25;54.85;99850.53;5003412;28;20391;-77
2022/10/21 03:38:19;;;;;;;;;;;;;;;13.34;52.38;99852.53;5022365;28;20643;-77
2022/10/21 03:40:44;;;;;;;;;;;;;;;13.31;51.10;99851.88;5023067;28;19924;-76
2022/10/21 03:43:10;;;;;;;;;;;;;;;13.24;49.87;99850.66;5024313;28;19925;-73
2022/10/21 03:45:35;;;;;;;;;;;;;;;13.17;49.27;99855.47;5024738;28;19918;-77
2022/10/21 03:48:01;;;;;;;;;;;;;;;13.09;48.37;99845.50;5023696;28;20416;-84
2022/10/21 03:50:26;;;;;;;;;;;;;;;13.05;47.90;99840.59;5009396;28;20351;-81
2022/10/21 03:52:51;;;;;;;;;;;;;;;13.00;47.85;99851.41;5024044;28;20487;-78
2022/10/21 03:55:19;;;;;;;;;;;;;;;12.98;47.46;99848.03;5023194;28;19917;-79
2022/10/21 03:57:45;;;;;;;;;;;;;;;12.92;47.53;99848.44;5009185;28;20407;-81
2022/10/21 04:00:10;;;;;;;;;;;;;;;12.86;47.62;99841.84;5024144;28;19961;-84
2022/10/21 04:02:36;;;;;;;;;;;;;;;12.91;49.33;99846.78;5023517;28;20008;-77
2022/10/21 04:05:01;;;;;;;;;;;;;;;13.19;60.15;99851.81;5024610;28;20055;-80
2022/10/21 04:07:26;;;;;;;;;;;;;;;13.32;58.73;99843.91;5008048;28;20351;-78
2022/10/21 04:09:52;;;;;;;;;;;;;;;13.45;58.74;99849.16;5023510;28;19957;-77
2022/10/21 04:12:17;;;;;;;;;;;;;;;13.66;61.66;99851.22;5022897;28;19920;-77
2022/10/21 04:14:42;;;;;;;;;;;;;;;14.42;60.67;99847.41;5024421;28;19917;-82
2022/10/21 04:17:07;;;;;;;;;;;;;;;14.67;58.75;99850.84;5006556;28;19926;-77
2022/10/21 04:19:33;;;;;;;;;;;;;;;14.82;52.28;99852.31;5024432;28;20301;-72
2022/10/21 04:21:58;;;;;;;;;;;;;;;14.74;50.79;99852.06;5025825;28;19960;-75
2022/10/21 04:24:23;;;;;;;;;;;;;;;14.71;48.90;99856.72;5022089;28;19918;-76
2022/10/21 04:26:49;;;;;;;;;;;;;;;14.46;47.45;99840.97;5023721;28;19921;-75
2022/10/21 04:29:14;;;;;;;;;;;;;;;14.26;47.00;99852.97;5007152;28;19918;-76
2022/10/21 04:31:39;;;;;;;;;;;;;;;14.08;46.47;99849.06;5021930;28;20775;-78
2022/10/21 04:34:05;;;;;;;;;;;;;;;13.92;46.00;99850.16;5025063;28;19917;-76
2022/10/21 04:36:31;;;;;;;;;;;;;;;13.80;46.39;99855.47;5024999;28;19933;-90
2022/10/21 04:38:56;;;;;;;;;;;;;;;13.72;46.14;99856.03;5010448;28;19967;-88
2022/10/21 04:41:21;;;;;;;;;;;;;;;13.66;46.07;99853.84;5029323;28;19924;-83
2022/10/21 04:43:46;;;;;;;;;;;;;;;13.65;45.79;99854.81;5006333;28;19924;-82
2022/10/21 04:46:15;;;;;;;;;;;;;;;13.67;45.92;99853.72;5023450;28;19924;-83
2022/10/21 04:48:41;;;;;;;;;;;;;;;13.73;45.83;99853.28;5024319;28;19928;-78
2022/10/21 04:51:06;;;;;;;;;;;;;;;13.84;45.73;99854.31;5006108;28;19918;-80
2022/10/21 04:53:32;;;;;;;;;;;;;;;13.96;45.43;99848.16;5006087;28;19921;-79
2022/10/21 04:55:57;;;;;;;;;;;;;;;14.05;45.21;99854.53;5007713;28;19921;-78
2022/10/21 04:58:22;;;;;;;;;;;;;;;14.09;44.75;99853.38;5023115;28;19975;-84
2022/10/21 05:00:48;;;;;;;;;;;;;;;14.23;44.55;99855.81;5012726;28;20007;-88
2022/10/21 05:03:13;;;;;;;;;;;;;;;14.33;44.29;99855.97;5032859;28;19949;-72
2022/10/21 05:05:39;;;;;;;;;;;;;;;14.27;44.51;99851.19;5022497;28;19917;-72
2022/10/21 05:08:04;;;;;;;;;;;;;;;14.24;44.42;99857.47;5022344;28;20304;-73
2022/10/21 05:10:29;;;;;;;;;;;;;;;14.23;44.51;99863.69;5023422;28;19917;-71
2022/10/21 05:12:56;;;;;;;;;;;;;;;14.25;44.22;99861.78;5021772;28;20424;-72
2022/10/21 05:15:21;;;;;;;;;;;;;;;14.27;44.22;99865.13;5006917;28;19921;-72
2022/10/21 05:17:46;;;;;;;;;;;;;;;14.30;44.42;99866.72;5004644;28;19932;-73
2022/10/21 05:20:12;;;;;;;;;;;;;;;14.35;44.13;99875.06;5023077;28;20011;-75
2022/10/21 05:22:37;;;;;;;;;;;;;;;14.40;43.98;99872.09;5023169;28;19917;-73
2022/10/21 05:25:02;;;;;;;;;;;;;;;14.45;43.88;99868.19;5020930;28;19924;-74
2022/10/21 05:27:28;;;;;;;;;;;;;;;14.51;43.92;99869.53;5006234;28;19917;-74
2022/10/21 05:29:53;;;;;;;;;;;;;;;14.61;43.61;99881.06;5022470;28;19917;-76
2022/10/21 05:32:18;;;;;;;;;;;;;;;14.63;43.56;99868.63;5022235;28;19926;-71
2022/10/21 05:34:44;;;;;;;;;;;;;;;14.70;43.72;99873.44;5023943;28;19924;-74
2022/10/21 05:37:09;;;;;;;;;;;;;;;15.06;43.17;99882.13;5022668;28;19925;-71
2022/10/21 05:39:34;;;;;;;;;;;;;;;15.92;41.52;99880.63;5021163;28;19952;-74
2022/10/21 05:42:00;;;;;;;;;;;;;;;16.57;40.28;99878.88;5022542;28;19917;-71
2022/10/21 05:44:25;;;;;;;;;;;;;;;17.12;39.09;99885.75;5022418;28;19917;-72
2022/10/21 05:46:50;;;;;;;;;;;;;;;17.62;38.00;99882.34;5022046;28;19922;-73
2022/10/21 05:49:15;;;;;;;;;;;;;;;18.12;37.05;99882.31;5005586;28;19917;-72
2022/10/21 05:51:43;;;;;;;;;;;;;;;18.61;36.06;99883.16;5021911;28;20011;-75
2022/10/21 05:54:08;;;;;;;;;;;;;;;19.12;35.49;99878.50;5021822;28;19917;-74
2022/10/21 05:56:34;;;;;;;;;;;;;;;19.71;34.43;99888.81;5021811;28;20308;-73
2022/10/21 05:58:59;;;;;;;;;;;;;;;20.24;33.49;99890.75;5021603;28;19921;-71
2022/10/21 06:01:24;;;;;;;;;;;;;;;20.74;32.66;99891.19;5021936;28;20391;-72
2022/10/21 06:03:49;;;;;;;;;;;;;;;21.22;31.65;99889.84;5022203;28;19917;-73
2022/10/21 06:06:15;;;;;;;;;;;;;;;21.72;30.92;99893.56;5020857;28;19925;-73
2022/10/21 06:08:40;;;;;;;;;;;;;;;22.19;30.38;99894.84;5022069;28;19924;-75
2022/10/21 06:11:12;;;;;;;;;;;;;;;22.66;29.54;99898.69;5020537;28;19960;-72
2022/10/21 06:13:38;;;;;;;;;;;;;;;23.14;28.71;99897.00;5004021;28;19917;-73
2022/10/21 06:16:03;;;;;;;;;;;;;;;23.61;27.94;99906.00;5022872;28;19925;-73
2022/10/21 06:18:29;;;;;;;;;;;;;;;24.03;27.33;99910.16;5004298;28;19918;-73
2022/10/21 06:20:54;;;;;;;;;;;;;;;24.49;26.76;99906.66;5020371;28;20005;-72
2022/10/21 06:23:19;;;;;;;;;;;;;;;24.95;26.04;99898.59;5022977;28;19929;-72
2022/10/21 06:25:57;;;;;;;;;;;;;;;25.43;25.30;99899.13;5019868;28;20000;-72
2022/10/21 06:28:23;;;;;;;;;;;;;;;25.98;24.41;99902.28;5020768;28;20047;-71
2022/10/21 06:30:48;;;;;;;;;;;;;;;26.58;23.87;99907.34;5021260;28;19959;-71
2022/10/21 06:33:13;;;;;;;;;;;;;;;27.22;22.83;99909.09;5020930;28;19918;-72
2022/10/21 06:35:39;;;;;;;;;;;;;;;27.94;21.22;99917.75;5019627;28;19925;-73
2022/10/21 06:38:04;;;;;;;;;;;;;;;28.73;20.54;99909.19;5021829;28;20503;-74
2022/10/21 06:40:29;;;;;;;;;;;;;;;29.55;19.35;99901.59;5021426;28;19917;-72
2022/10/21 06:42:55;;;;;;;;;;;;;;;30.37;18.20;99904.47;5021313;28;19923;-72
2022/10/21 06:45:20;;;;;;;;;;;;;;;31.22;17.34;99903.13;5021569;28;20317;-71
2022/10/21 06:47:45;;;;;;;;;;;;;;;32.02;16.92;99906.72;5020815;28;19976;-72
2022/10/21 06:50:12;;;;;;;;;;;;;;;32.79;16.01;99911.38;5021771;28;19957;-73
2022/10/21 06:52:38;;;;;;;;;;;;;;;33.42;15.11;99917.13;5022287;28;19921;-74
2022/10/21 06:55:03;;;;;;;;;;;;;;;33.77;14.69;99908.09;5019641;28;19918;-73
2022/10/21 06:57:28;;;;;;;;;;;;;;;33.96;14.49;99914.94;5020784;28;20347;-72
2022/10/21 06:59:54;;;;;;;;;;;;;;;33.81;14.46;99904.66;5021753;28;19963;-73
2022/10/21 07:02:19;;;;;;;;;;;;;;;33.52;14.94;99911.91;5019442;28;19925;-75
2022/10/21 07:04:47;;;;;;;;;;;;;;;33.05;15.35;99920.06;5021106;28;20308;-72
2022/10/21 07:07:13;;;;;;;;;;;;;;;32.44;15.89;99912.16;5021409;28;20403;-72
2022/10/21 07:09:38;;;;;;;;;;;;;;;31.96;16.35;99904.94;5019576;28;19917;-72
2022/10/21 07:12:03;;;;;;;;;;;;;;;31.62;16.94;99909.97;5022200;28;19917;-72
2022/10/21 07:14:29;;;;;;;;;;;;;;;31.41;16.81;99906.66;5021120;28;20359;-71
2022/10/21 07:16:54;;;;;;;;;;;;;;;31.27;17.02;99903.28;5020847;28;20052;-73
2022/10/21 07:19:19;;;;;;;;;;;;;;;31.18;17.28;99901.91;5022075;28;19932;-71
2022/10/21 07:21:45;;;;;;;;;;;;;;;31.10;16.88;99899.53;5020457;28;19918;-74
2022/10/21 07:24:10;;;;;;;;;;;;;;;31.04;17.18;99898.53;5021432;28;19924;-74
2022/10/21 07:26:36;;;;;;;;;;;;;;;30.94;17.67;99899.03;5021781;28;20019;-72
2022/10/21 07:29:01;;;;;;;;;;;;;;;30.93;17.54;99904.63;5019123;28;20664;-72
2022/10/21 07:31:27;;;;;;;;;;;;;;;30.96;17.56;99909.59;5004209;28;20384;-71
2022/10/21 07:33:52;;;;;;;;;;;;;;;31.01;17.35;99907.91;5019942;28;19935;-72
2022/10/21 07:36:22;;;;;;;;;;;;;;;31.05;17.70;99905.59;5002818;28;19921;-73
2022/10/21 07:38:47;;;;;;;;;;;;;;;31.08;17.44;99901.63;5019382;28;20004;-73
2022/10/21 07:41:19;;;;;;;;;;;;;;;31.08;17.15;99902.44;5019907;28;20012;-73
2022/10/21 07:43:45;;;;;;;;;;;;;;;31.18;16.90;99902.75;5022035;28;19943;-72
2022/10/21 07:46:10;;;;;;;;;;;;;;;31.15;16.97;99896.97;5019669;28;20424;-71
2022/10/21 07:48:36;;;;;;;;;;;;;;;31.19;17.42;99903.59;5020339;28;19924;-72
2022/10/21 07:51:02;;;;;;;;;;;;;;;31.24;17.20;99906.41;5020940;28;19925;-71
2022/10/21 07:53:27;;;;;;;;;;;;;;;31.26;17.11;99901.63;5002785;28;19927;-73
2022/10/21 07:56:03;;;;;;;;;;;;;;;31.38;17.04;99899.81;5003237;28;20011;-73
2022/10/21 07:58:28;;;;;;;;;;;;;;;31.42;16.90;99902.88;5019119;28;19924;-74
2022/10/21 08:00:56;;;;;;;;;;;;;;;31.49;17.02;99900.13;5019610;28;20379;-74
2022/10/21 08:03:21;;;;;;;;;;;;;;;31.59;16.99;99895.03;5021782;28;19924;-74
2022/10/21 08:05:47;;;;;;;;;;;;;;;31.61;16.59;99894.81;5020011;28;20317;-72
2022/10/21 08:08:12;;;;;;;;;;;;;;;31.69;16.79;99894.50;5019992;28;19964;-74
2022/10/21 08:10:38;;;;;;;;;;;;;;;31.74;16.79;99889.25;5020379;28;20369;-73
2022/10/21 08:13:03;;;;;;;;;;;;;;;31.78;16.77;99890.44;5018493;28;19922;-76
2022/10/21 08:15:28;;;;;;;;;;;;;;;31.84;16.76;99892.22;5021284;28;19975;-74
2022/10/21 08:17:54;;;;;;;;;;;;;;;31.86;16.76;99887.41;5020998;28;19921;-72
2022/10/21 08:20:19;;;;;;;;;;;;;;;31.84;16.65;99891.41;5019743;28;19924;-75
2022/10/21 08:22:44;;;;;;;;;;;;;;;31.92;16.60;99888.38;5021597;28;19959;-72
2022/10/21 08:25:12;;;;;;;;;;;;;;;31.96;16.39;99897.69;5005141;28;20017;-77
2022/10/21 08:27:38;;;;;;;;;;;;;;;31.93;16.62;99888.16;5023532;28;19924;-73
2022/10/21 08:30:03;;;;;;;;;;;;;;;31.97;16.44;99891.19;5025413;28;19917;-71
2022/10/21 08:32:28;;;;;;;;;;;;;;;32.06;16.46;99889.81;5025361;28;20387;-75
2022/10/21 08:34:54;;;;;;;;;;;;;;;32.18;16.61;99889.06;5006678;28;20313;-73
2022/10/21 08:37:19;;;;;;;;;;;;;;;32.24;16.42;99890.84;5023229;28;19917;-72
2022/10/21 08:39:45;;;;;;;;;;;;;;;32.20;16.55;99885.09;5024886;28;19924;-73
2022/10/21 08:42:11;;;;;;;;;;;;;;;32.37;16.53;99885.25;5023656;28;19925;-73
2022/10/21 08:44:39;;;;;;;;;;;;;;;32.40;16.62;99875.81;5022765;28;19917;-73
2022/10/21 08:47:16;;;;;;;;;;;;;;;32.49;16.55;99881.72;5026105;28;19917;-81
2022/10/21 08:49:44;;;;;;;;;;;;;;;32.45;16.47;99876.78;5025883;28;20008;-77
2022/10/21 08:52:14;;;;;;;;;;;;;;;32.19;20.24;99871.81;5024261;28;20380;-78
2022/10/21 08:54:53;;;;;;;;;;;;;;;31.77;19.52;99878.00;5024788;28;20004;-78
2022/10/21 08:57:19;;;;;;;;;;;;;;;31.39;19.50;99877.19;5022424;28;19957;-77
2022/10/21 08:59:44;;;;;;;;;;;;;;;31.14;19.44;99873.78;5021580;28;19956;-75
2022/10/21 09:02:19;;;;;;;;;;;;;;;30.94;18.27;99872.06;5005890;28;20012;-75
2022/10/21 09:04:48;;;;;;;;;;;;;;;30.96;18.97;99864.63;5020237;28;19924;-76
2022/10/21 09:07:20;;;;;;;;;;;;;;;30.47;18.29;99869.81;5022308;28;19961;-75
2022/10/21 09:09:59;;;;;;;;;;;;;;;30.51;18.68;99872.91;5017662;28;19991;-72
2022/10/21 09:12:28;;;;;;;;;;;;;;;30.66;18.68;99864.47;5004061;28;20004;-75
2022/10/21 09:15:14;;;;;;;;;;;;;;;30.92;18.39;99865.28;5021083;28;19927;-75
2022/10/21 09:17:54;;;;;;;;;;;;;;;30.44;18.73;99872.09;5003799;28;20016;-74
2022/10/21 09:20:38;;;;;;;;;;;;;;;30.17;18.23;99866.06;5021429;28;20312;-79
2022/10/21 09:23:24;;;;;;;;;;;;;;;29.60;18.80;99861.41;5022650;28;19927;-75
2022/10/21 09:25:55;;;;;;;;;;;;;;;29.59;19.30;99863.28;4999969;28;19968;-76
2022/10/21 09:28:21;;;;;;;;;;;;;;;28.89;20.17;99855.00;4982783;28;19925;-78
2022/10/21 09:30:46;;;;;;;;;;;;;;;28.33;20.83;99857.09;4983074;28;20310;-78
2022/10/21 09:33:14;;;;;;;;;;;;;;;28.54;20.75;99849.84;5017459;28;20388;-83
2022/10/21 09:35:42;;;;;;;;;;;;;;;28.43;20.85;99848.63;5001515;28;20020;-79
2022/10/21 09:38:19;;;;;;;;;;;;;;;28.28;20.65;99848.00;5013538;28;19972;-79
2022/10/21 09:40:45;;;;;;;;;;;;;;;28.48;20.67;99845.31;5015893;28;19917;-82
2022/10/21 09:43:18;;;;;;;;;;;;;;;28.80;20.20;99840.97;5016720;28;20011;-78
2022/10/21 09:45:44;;;;;;;;;;;;;;;28.69;20.24;99831.69;4985552;28;20008;-78
2022/10/21 09:48:21;;;;;;;;;;;;;;;28.02;21.06;99836.19;4983320;28;20004;-77
2022/10/21 09:50:53;;;;;;;;;;;;;;;28.09;21.01;99831.69;4996713;28;20393;-85
2022/10/21 09:53:30;;;;;;;;;;;;;;;28.05;21.67;99833.09;5016104;28;19918;-78
2022/10/21 09:56:25;;;;;;;;;;;;;;;28.03;21.15;99826.31;4999118;28;19917;-78
2022/10/21 09:58:56;;;;;;;;;;;;;;;27.87;21.85;99825.63;4941106;29;19926;-77
2022/10/21 10:01:21;;;;;;;;;;;;;;;27.86;21.76;99823.16;4941007;29;20646;-79
2022/10/21 10:03:49;;;;;;;;;;;;;;;28.22;21.41;99822.81;4962162;28;20016;-77
2022/10/21 10:06:38;;;;;;;;;;;;;;;27.84;21.80;99820.66;4948251;28;19929;-76
2022/10/21 10:09:15;;;;;;;;;;;;;;;28.00;21.46;99807.94;4990223;28;20022;-80
2022/10/21 10:11:47;;;;;;;;;;;;;;;27.58;20.95;99811.53;4990223;28;19917;-78
2022/10/21 10:14:20;;;;;;;;;;;;;;;27.44;21.32;99813.34;4971012;28;20055;-76
2022/10/21 10:16:45;;;;;;;;;;;;;;;27.50;21.91;99806.34;4956553;28;19972;-75
2022/10/21 10:19:17;;;;;;;;;;;;;;;27.02;22.51;99801.78;4957598;28;19945;-73
2022/10/21 10:21:43;;;;;;;;;;;;;;;26.53;22.90;99795.53;4973507;28;20908;-74
2022/10/21 10:24:17;;;;;;;;;;;;;;;26.96;22.59;99785.69;4989681;28;19945;-76
2022/10/21 10:26:43;;;;;;;;;;;;;;;26.92;23.19;99784.44;4956462;28;19922;-85
2022/10/21 10:29:14;;;;;;;;;;;;;;;25.54;23.39;99788.22;4958214;28;19925;-84
2022/10/21 10:31:43;;;;;;;;;;;;;;;25.84;23.90;99782.75;4991320;28;20037;-85
2022/10/21 10:34:13;;;;;;;;;;;;;;;25.62;24.21;99782.75;4969967;28;19946;-80
2022/10/21 10:36:39;;;;;;;;;;;;;;;25.59;23.93;99774.28;4982173;28;19921;-78
2022/10/21 10:39:06;;;;;;;;;;;;;;;25.79;23.88;99774.47;4984945;28;20318;-76
2022/10/21 10:41:35;;;;;;;;;;;;;;;25.53;23.61;99769.69;4983934;28;20282;-74
2022/10/21 10:44:01;;;;;;;;;;;;;;;24.73;24.42;99769.50;4983402;28;20459;-76
2022/10/21 10:46:30;;;;;;;;;;;;;;;24.71;25.51;99759.00;5004115;28;20383;-76
2022/10/21 10:48:57;;;;;;;;;;;;;;;24.87;25.35;99765.97;5003361;28;20385;-76
2022/10/21 10:51:32;;;;;;;;;;;;;;;24.95;24.61;99759.72;5019029;28;19975;-79
2022/10/21 10:53:58;;;;;;;;;;;;;;;24.62;24.76;99759.28;5005362;28;19917;-76
2022/10/21 10:56:34;;;;;;;;;;;;;;;24.53;24.99;99754.00;5021802;28;19928;-78
2022/10/21 10:59:11;;;;;;;;;;;;;;;24.07;25.74;99755.94;5004279;28;19921;-78
2022/10/21 11:01:38;;;;;;;;;;;;;;;23.86;26.17;99746.75;5022725;28;19921;-82
2022/10/21 11:04:22;;;;;;;;;;;;;;;23.79;26.38;99749.28;5019037;28;19967;-80
2022/10/21 11:07:03;;;;;;;;;;;;;;;23.74;25.93;99740.19;5016353;28;19975;-80
2022/10/21 11:09:29;;;;;;;;;;;;;;;23.69;27.05;99745.19;5019435;28;19925;-80
2022/10/21 11:11:55;;;;;;;;;;;;;;;23.79;26.57;99743.13;5021310;28;20371;-82
2022/10/21 11:14:22;;;;;;;;;;;;;;;23.68;26.83;99736.38;5004199;28;19984;-80
2022/10/21 11:17:06;;;;;;;;;;;;;;;23.70;27.52;99744.19;5004925;28;19933;-84
2022/10/21 11:19:43;;;;;;;;;;;;;;;23.43;28.55;99739.19;5022367;28;19921;-77
2022/10/21 11:22:19;;;;;;;;;;;;;;;23.53;27.97;99733.66;5016024;28;19928;-75
2022/10/21 11:24:45;;;;;;;;;;;;;;;23.57;30.39;99737.63;5008222;28;19921;-74
2022/10/21 11:27:13;;;;;;;;;;;;;;;23.86;29.79;99727.28;5023517;28;19917;-74
2022/10/21 11:29:50;;;;;;;;;;;;;;;23.99;28.36;99731.00;5002884;28;20312;-80
2022/10/21 11:32:16;;;;;;;;;;;;;;;23.88;26.81;99720.78;5020015;28;20395;-81
2022/10/21 11:35:00;;;;;;;;;;;;;;;23.73;28.38;99726.00;5020050;28;19918;-78
2022/10/21 11:37:43;;;;;;;;;;;;;;;23.50;28.08;99723.38;5020181;28;19924;-77
2022/10/21 11:40:24;;;;;;;;;;;;;;;23.11;31.96;99722.41;5020695;28;19979;-84
2022/10/21 11:42:49;;;;;;;;;;;;;;;22.93;28.23;99727.13;5017424;28;19921;-77
2022/10/21 11:45:21;;;;;;;;;;;;;;;22.59;28.00;99717.59;5007148;28;20308;-78
2022/10/21 11:47:49;;;;;;;;;;;;;;;22.53;27.84;99718.28;5029613;28;19921;-83
2022/10/21 11:50:31;;;;;;;;;;;;;;;22.58;29.17;99715.94;5019688;28;19924;-78
2022/10/21 11:53:20;;;;;;;;;;;;;;;22.72;28.43;99714.38;5018160;28;20363;-79
2022/10/21 11:55:54;;;;;;;;;;;;;;;22.83;27.95;99708.69;5001909;28;19975;-81
2022/10/21 11:58:28;;;;;;;;;;;;;;;22.87;27.72;99715.34;5019520;28;20343;-77
2022/10/21 12:01:15;;;;;;;;;;;;;;;22.88;27.72;99708.16;5027267;28;19920;-84
2022/10/21 12:03:49;;;;;;;;;;;;;;;22.84;27.66;99704.22;5024945;28;19924;-83
2022/10/21 12:06:18;;;;;;;;;;;;;;;22.86;27.76;99704.84;5026278;28;20381;-83
2022/10/21 12:08:53;;;;;;;;;;;;;;;22.86;27.54;99696.88;5022532;28;19960;-81
2022/10/21 12:11:19;;;;;;;;;;;;;;;22.84;27.37;99699.72;5007453;28;19940;-79
2022/10/21 12:13:55;;;;;;;;;;;;;;;22.85;27.59;99690.72;5024472;28;19921;-84
2022/10/21 12:16:25;;;;;;;;;;;;;;;22.84;27.55;99689.06;5008425;28;20313;-85
2022/10/21 12:18:51;;;;;;;;;;;;;;;22.82;27.68;99682.25;5005841;28;19921;-82
2022/10/21 12:21:17;;;;;;;;;;;;;;;22.85;27.39;99677.41;5006284;28;19984;-80
2022/10/21 12:23:42;;;;;;;;;;;;;;;22.86;27.62;99675.56;5023478;28;19932;-79
2022/10/21 12:26:11;;;;;;;;;;;;;;;22.80;27.49;99681.59;5021344;28;19917;-83
2022/10/21 12:28:42;;;;;;;;;;;;;;;22.78;27.48;99673.78;5007039;28;19917;-82
2022/10/21 12:31:07;;;;;;;;;;;;;;;22.80;27.50;99674.44;5023366;28;19924;-81
2022/10/21 12:33:32;;;;;;;;;;;;;;;22.80;27.71;99682.41;5021210;28;19917;-84
2022/10/21 12:36:10;;;;;;;;;;;;;;;22.76;27.60;99667.81;5023183;28;20029;-85
2022/10/21 12:38:42;;;;;;;;;;;;;;;22.76;27.70;99667.81;5024193;28;20352;-82
2022/10/21 12:41:23;;;;;;;;;;;;;;;22.75;27.43;99668.81;5021317;28;19917;-81
2022/10/21 12:43:57;;;;;;;;;;;;;;;22.75;27.40;99674.94;5021272;28;19921;-84
2022/10/21 12:46:27;;;;;;;;;;;;;;;22.83;38.29;99681.25;5006289;28;19932;-81
2022/10/21 12:48:52;;;;;;;;;;;;;;;22.84;33.33;99666.94;5024048;28;20377;-86
2022/10/21 12:51:18;;;;;;;;;;;;;;;22.76;32.48;99665.97;5007229;28;20017;-81
2022/10/21 12:53:51;;;;;;;;;;;;;;;22.71;30.78;99668.34;5020854;28;20016;-76